createdAt,value
2022-10-13T00:01:56.658Z,10.68
2022-10-13T00:04:22.893Z,10.68
2022-10-13T00:06:49.233Z,10.60
2022-10-13T00:09:15.562Z,11.02
2022-10-13T00:11:41.800Z,10.15
2022-10-13T00:14:08.049Z,10.68
2022-10-13T00:16:34.329Z,11.20
2022-10-13T00:19:00.708Z,11.20
2022-10-13T00:21:27.635Z,10.32
2022-10-13T00:23:54.147Z,11.07
2022-10-13T00:26:21.440Z,10.95
2022-10-13T00:28:52.172Z,10.32
2022-10-13T00:31:18.946Z,10.80
2022-10-13T00:33:45.288Z,11.18
2022-10-13T00:36:11.586Z,10.30
2022-10-13T00:38:37.848Z,11.07
2022-10-13T00:41:04.509Z,11.10
2022-10-13T00:43:49.461Z,10.70
2022-10-13T00:46:15.844Z,10.80
2022-10-13T00:48:43.155Z,11.18
2022-10-13T00:51:10.847Z,10.75
2022-10-13T00:53:38.155Z,10.38
2022-10-13T00:56:05.826Z,9.95
2022-10-13T00:58:33.572Z,10.88
2022-10-13T01:00:59.895Z,11.43
2022-10-13T01:03:26.822Z,10.95
2022-10-13T01:05:55.436Z,9.88
2022-10-13T01:08:22.286Z,10.65
2022-10-13T01:10:54.638Z,9.82
2022-10-13T01:13:28.343Z,10.95
2022-10-13T01:15:57.778Z,11.02
2022-10-13T01:18:42.352Z,10.15
2022-10-13T01:21:27.549Z,10.18
2022-10-13T01:24:11.233Z,10.07
2022-10-13T01:26:40.514Z,10.38
2022-10-13T01:29:13.734Z,11.52
2022-10-13T01:31:43.960Z,10.55
2022-10-13T01:34:13.325Z,10.57
2022-10-13T01:36:45.650Z,10.30
2022-10-13T01:39:12.036Z,10.80
2022-10-13T01:41:43.903Z,10.65
2022-10-13T01:44:12.243Z,10.23
2022-10-13T01:46:38.863Z,10.20
2022-10-13T01:49:07.308Z,10.20
2022-10-13T01:51:34.036Z,11.43
2022-10-13T01:54:00.315Z,10.65
2022-10-13T01:56:26.559Z,11.10
2022-10-13T01:58:54.454Z,11.25
2022-10-13T02:01:39.524Z,9.77
2022-10-13T02:04:21.113Z,11.25
2022-10-13T02:06:50.429Z,10.25
2022-10-13T02:09:25.927Z,10.07
2022-10-13T02:12:12.418Z,10.85
2022-10-13T02:14:41.018Z,12.20
2022-10-13T02:17:07.370Z,11.32
2022-10-13T02:19:34.811Z,10.70
2022-10-13T02:22:01.296Z,10.55
2022-10-13T02:24:27.658Z,10.35
2022-10-13T02:26:54.032Z,10.85
2022-10-13T02:29:20.294Z,10.60
2022-10-13T02:31:46.543Z,10.52
2022-10-13T02:34:13.558Z,10.57
2022-10-13T02:36:40.384Z,10.88
2022-10-13T02:39:07.318Z,10.23
2022-10-13T02:41:33.611Z,10.40
2022-10-13T02:43:59.884Z,10.60
2022-10-13T02:46:26.164Z,10.23
2022-10-13T02:48:52.408Z,10.10
2022-10-13T02:51:18.646Z,11.32
2022-10-13T02:53:44.925Z,11.13
2022-10-13T02:56:11.185Z,11.20
2022-10-13T02:58:37.436Z,11.05
2022-10-13T03:01:07.875Z,11.70
2022-10-13T03:03:34.277Z,10.90
2022-10-13T03:06:00.821Z,11.27
2022-10-13T03:08:27.166Z,11.48
2022-10-13T03:10:53.408Z,11.80
2022-10-13T03:13:19.685Z,10.93
2022-10-13T03:15:47.517Z,11.35
2022-10-13T03:18:13.874Z,12.00
2022-10-13T03:20:40.127Z,10.98
2022-10-13T03:23:07.037Z,11.63
2022-10-13T03:25:33.861Z,10.55
2022-10-13T03:28:00.091Z,11.20
2022-10-13T03:30:26.611Z,10.95
2022-10-13T03:32:52.925Z,11.73
2022-10-13T03:35:19.175Z,11.38
2022-10-13T03:37:45.461Z,11.18
2022-10-13T03:40:12.561Z,10.85
2022-10-13T03:42:39.120Z,11.18
2022-10-13T03:45:05.861Z,11.15
2022-10-13T03:47:32.680Z,12.20
2022-10-13T03:49:58.902Z,11.73
2022-10-13T03:52:25.178Z,11.68
2022-10-13T03:54:51.477Z,12.60
2022-10-13T03:57:17.744Z,11.13
2022-10-13T03:59:44.044Z,11.70
2022-10-13T04:02:10.333Z,12.18
2022-10-13T04:04:37.239Z,12.15
2022-10-13T04:07:03.526Z,11.60
2022-10-13T04:09:29.833Z,11.55
2022-10-13T04:11:56.096Z,11.70
2022-10-13T04:14:22.361Z,11.80
2022-10-13T04:16:48.617Z,12.40
2022-10-13T04:19:15.621Z,11.88
2022-10-13T04:21:42.343Z,11.50
2022-10-13T04:24:11.424Z,13.32
2022-10-13T04:26:37.717Z,12.45
2022-10-13T04:29:04.510Z,13.00
2022-10-13T04:31:31.113Z,12.32
2022-10-13T04:33:57.856Z,11.90
2022-10-13T04:36:24.361Z,11.95
2022-10-13T04:38:50.778Z,12.35
2022-10-13T04:41:17.551Z,11.48
2022-10-13T04:43:43.823Z,14.20
2022-10-13T04:46:14.290Z,13.75
2022-10-13T04:48:40.817Z,13.45
2022-10-13T04:51:09.038Z,12.10
2022-10-13T04:53:35.617Z,12.48
2022-10-13T04:56:02.601Z,12.85
2022-10-13T04:58:29.360Z,12.55
2022-10-13T05:00:55.904Z,13.85
2022-10-13T05:03:22.612Z,13.13
2022-10-13T05:05:48.955Z,12.63
2022-10-13T05:08:15.194Z,12.05
2022-10-13T05:10:41.469Z,12.45
2022-10-13T05:13:07.747Z,13.00
2022-10-13T05:15:34.015Z,13.38
2022-10-13T05:18:00.485Z,12.60
2022-10-13T05:20:27.091Z,12.70
2022-10-13T05:22:53.360Z,12.63
2022-10-13T05:25:19.586Z,12.77
2022-10-13T05:27:46.330Z,13.38
2022-10-13T05:30:12.802Z,13.30
2022-10-13T05:32:39.053Z,12.73
2022-10-13T05:35:05.584Z,12.60
2022-10-13T05:37:31.827Z,14.55
2022-10-13T05:39:58.071Z,13.50
2022-10-13T05:42:24.385Z,13.63
2022-10-13T05:44:50.906Z,13.02
2022-10-13T05:47:17.198Z,13.77
2022-10-13T05:49:43.472Z,13.70
2022-10-13T05:52:12.262Z,12.98
2022-10-13T05:54:43.270Z,14.00
2022-10-13T05:57:20.868Z,13.48
2022-10-13T06:00:05.296Z,14.60
2022-10-13T06:02:34.999Z,13.70
2022-10-13T06:05:02.669Z,13.98
2022-10-13T06:07:29.437Z,13.77
2022-10-13T06:09:56.400Z,14.82
2022-10-13T06:12:22.878Z,14.38
2022-10-13T06:14:49.395Z,14.93
2022-10-13T06:17:15.654Z,15.15
2022-10-13T06:19:42.021Z,14.15
2022-10-13T06:22:09.348Z,16.08
2022-10-13T06:24:35.576Z,16.65
2022-10-13T06:27:01.818Z,14.57
2022-10-13T06:29:28.073Z,14.30
2022-10-13T06:31:54.408Z,14.60
2022-10-13T06:34:20.669Z,14.90
2022-10-13T06:36:47.208Z,15.77
2022-10-13T06:39:13.444Z,15.18
2022-10-13T06:41:39.705Z,15.07
2022-10-13T06:44:05.969Z,15.18
2022-10-13T06:46:32.214Z,14.93
2022-10-13T06:48:59.082Z,15.20
2022-10-13T06:51:25.577Z,15.13
2022-10-13T06:53:51.873Z,15.43
2022-10-13T06:56:18.135Z,15.80
2022-10-13T06:58:44.431Z,14.95
2022-10-13T07:01:12.030Z,16.25
2022-10-13T07:03:38.310Z,16.35
2022-10-13T07:06:05.707Z,16.98
2022-10-13T07:08:32.410Z,15.50
2022-10-13T07:10:58.852Z,16.25
2022-10-13T07:13:25.132Z,16.60
2022-10-13T07:15:51.441Z,15.13
2022-10-13T07:18:17.685Z,17.05
2022-10-13T07:20:43.943Z,17.27
2022-10-13T07:23:10.200Z,16.63
2022-10-13T07:25:37.507Z,16.38
2022-10-13T07:28:03.770Z,16.75
2022-10-13T07:30:30.000Z,15.13
2022-10-13T07:32:56.243Z,16.52
2022-10-13T07:35:30.270Z,17.30
2022-10-13T07:37:57.113Z,16.00
2022-10-13T07:40:23.538Z,16.45
2022-10-13T07:42:49.786Z,16.95
2022-10-13T07:45:16.102Z,17.67
2022-10-13T07:47:42.350Z,18.42
2022-10-13T07:50:09.235Z,17.40
2022-10-13T07:52:36.132Z,18.08
2022-10-13T07:55:02.644Z,18.13
2022-10-13T07:57:28.889Z,19.27
2022-10-13T07:59:55.285Z,19.70
2022-10-13T08:02:21.936Z,18.55
2022-10-13T08:04:48.401Z,19.30
2022-10-13T08:07:16.304Z,18.52
2022-10-13T08:09:42.645Z,19.52
2022-10-13T08:12:08.894Z,19.15
2022-10-13T08:14:35.356Z,20.67
2022-10-13T08:17:01.797Z,19.23
2022-10-13T08:19:29.145Z,19.50
2022-10-13T08:21:59.513Z,19.83
2022-10-13T08:24:26.660Z,20.08
2022-10-13T08:26:53.065Z,20.27
2022-10-13T08:29:22.627Z,19.20
2022-10-13T08:31:50.444Z,18.58
2022-10-13T08:34:16.765Z,18.90
2022-10-13T08:36:43.773Z,17.70
2022-10-13T08:39:10.152Z,17.15
2022-10-13T08:41:38.426Z,16.58
2022-10-13T08:47:02.032Z,15.40
2022-10-13T08:49:28.359Z,16.13
2022-10-13T08:51:55.050Z,16.63
2022-10-13T08:54:22.574Z,15.98
2022-10-13T08:56:50.956Z,15.75
2022-10-13T08:59:18.232Z,15.52
2022-10-13T09:01:49.299Z,13.55
2022-10-13T09:04:31.655Z,13.60
2022-10-13T09:07:07.220Z,11.77
2022-10-13T09:09:33.497Z,12.88
2022-10-13T09:11:59.879Z,12.98
2022-10-13T09:14:28.078Z,13.70
2022-10-13T09:16:55.193Z,13.63
2022-10-13T09:19:21.414Z,13.32
2022-10-13T09:21:48.522Z,14.15
2022-10-13T09:24:16.191Z,12.85
2022-10-13T09:26:43.603Z,13.55
2022-10-13T09:29:10.917Z,12.63
2022-10-13T09:31:37.933Z,12.50
2022-10-13T09:34:13.237Z,12.85
2022-10-13T09:36:39.990Z,11.85
2022-10-13T09:39:16.066Z,11.73
2022-10-13T09:41:43.532Z,12.40
2022-10-13T09:44:11.805Z,11.30
2022-10-13T09:46:44.156Z,11.50
2022-10-13T09:49:29.268Z,11.77
2022-10-13T09:52:14.028Z,10.35
2022-10-13T09:54:43.443Z,11.13
2022-10-13T09:57:16.232Z,10.32
2022-10-13T09:59:48.475Z,10.30
2022-10-13T10:02:26.558Z,10.60
2022-10-13T10:04:54.992Z,11.32
2022-10-13T10:07:23.400Z,10.57
2022-10-13T10:10:10.249Z,10.65
2022-10-13T10:12:39.983Z,10.40
2022-10-13T10:15:16.199Z,10.68
2022-10-13T10:17:46.956Z,11.15
2022-10-13T10:22:54.586Z,10.50
2022-10-13T10:25:20.825Z,9.77
2022-10-13T10:27:56.193Z,9.30
2022-10-13T10:30:22.483Z,10.80
2022-10-13T10:32:54.802Z,10.63
2022-10-13T10:35:39.860Z,10.43
2022-10-13T10:38:12.248Z,10.85
2022-10-13T10:40:56.559Z,10.52
2022-10-13T10:43:41.325Z,9.65
2022-10-13T10:46:15.872Z,10.95
2022-10-13T10:48:43.745Z,10.63
2022-10-13T10:51:10.741Z,10.88
2022-10-13T10:53:45.801Z,10.07
2022-10-13T10:56:18.071Z,10.73
2022-10-13T10:58:49.441Z,10.90
2022-10-13T11:01:30.930Z,10.80
2022-10-13T11:04:01.481Z,11.23
2022-10-13T11:06:37.400Z,11.77
2022-10-13T11:09:04.765Z,12.07
2022-10-13T11:11:36.606Z,12.30
2022-10-13T11:14:06.998Z,12.27
2022-10-13T11:16:36.233Z,12.02
2022-10-13T11:19:25.576Z,12.00
2022-10-13T11:21:54.940Z,11.73
2022-10-13T11:24:33.509Z,12.30
2022-10-13T11:27:11.901Z,11.55
2022-10-13T11:29:44.538Z,11.90
2022-10-13T11:32:26.454Z,12.15
2022-10-13T11:35:00.326Z,12.48
2022-10-13T11:37:35.710Z,11.20
2022-10-13T11:40:08.149Z,11.38
2022-10-13T11:42:55.557Z,12.00
2022-10-13T11:45:32.213Z,10.73
2022-10-13T11:48:25.255Z,11.07
2022-10-13T11:51:12.590Z,11.18
2022-10-13T11:53:48.617Z,10.85
2022-10-13T11:56:19.655Z,11.30
2022-10-13T11:58:45.955Z,11.75
2022-10-13T12:01:13.800Z,11.23
2022-10-13T12:03:42.114Z,10.85
2022-10-13T12:06:17.634Z,11.63
2022-10-13T12:08:51.278Z,10.85
2022-10-13T12:11:35.247Z,11.23
2022-10-13T12:14:01.694Z,11.38
2022-10-13T12:16:29.378Z,11.32
2022-10-13T12:19:06.306Z,10.73
2022-10-13T12:21:32.556Z,10.77
2022-10-13T12:24:06.795Z,11.50
2022-10-13T12:26:33.046Z,11.00
2022-10-13T12:29:03.212Z,11.15
2022-10-13T12:31:42.767Z,10.63
2022-10-13T12:34:21.428Z,10.57
2022-10-13T12:39:20.027Z,10.38
2022-10-13T12:41:48.525Z,10.90
2022-10-13T12:44:16.830Z,10.30
2022-10-13T12:46:52.277Z,10.68
2022-10-13T12:51:58.441Z,11.52
2022-10-13T12:54:26.771Z,11.38
2022-10-13T12:56:56.377Z,11.02
2022-10-13T12:59:23.399Z,11.50
2022-10-13T13:02:09.659Z,12.05
2022-10-13T13:04:41.262Z,11.85
2022-10-13T13:07:23.165Z,12.05
2022-10-13T13:10:07.470Z,12.05
2022-10-13T13:12:34.262Z,11.90
2022-10-13T13:15:17.503Z,13.20
2022-10-13T13:17:57.685Z,13.13
2022-10-13T13:20:29.781Z,13.27
2022-10-13T13:22:56.330Z,12.18
2022-10-13T13:25:22.820Z,13.75
2022-10-13T13:27:49.862Z,13.88
2022-10-13T13:30:18.081Z,13.73
2022-10-13T13:32:44.338Z,13.60
2022-10-13T13:35:10.740Z,13.52
2022-10-13T13:37:36.989Z,13.32
2022-10-13T13:40:05.353Z,14.02
2022-10-13T13:42:32.044Z,13.55
2022-10-13T13:44:58.389Z,14.05
2022-10-13T13:47:25.936Z,13.98
2022-10-13T13:49:56.125Z,13.30
2022-10-13T13:52:23.255Z,13.00
2022-10-13T13:54:50.714Z,13.15
2022-10-13T13:57:17.507Z,12.73
2022-10-13T13:59:43.993Z,11.68
2022-10-13T14:02:14.974Z,12.88
2022-10-13T14:04:41.414Z,11.63
2022-10-13T14:07:07.707Z,12.82
2022-10-13T14:09:33.994Z,12.48
2022-10-13T14:12:00.241Z,11.45
2022-10-13T14:14:26.523Z,11.35
2022-10-13T14:16:52.798Z,11.95
2022-10-13T14:19:19.058Z,11.52
2022-10-13T14:21:45.949Z,11.70
2022-10-13T14:24:12.205Z,11.88
2022-10-13T14:26:38.464Z,11.73
2022-10-13T14:29:04.727Z,11.60
2022-10-13T14:31:31.877Z,11.38
2022-10-13T14:33:58.256Z,11.80
2022-10-13T14:36:25.182Z,11.13
2022-10-13T14:38:51.487Z,12.25
2022-10-13T14:41:17.878Z,13.32
2022-10-13T14:43:44.133Z,11.25
2022-10-13T14:46:10.394Z,12.73
2022-10-13T14:48:37.246Z,12.25
2022-10-13T14:51:07.959Z,11.23
2022-10-13T14:56:00.417Z,13.20
2022-10-13T14:58:26.676Z,11.25
2022-10-13T15:00:53.601Z,12.80
2022-10-13T15:03:19.873Z,12.63
2022-10-13T15:05:46.126Z,11.18
2022-10-13T15:08:12.393Z,12.55
2022-10-13T15:10:38.863Z,12.18
2022-10-13T15:13:05.240Z,12.82
2022-10-13T15:15:31.506Z,12.10
2022-10-13T15:17:57.733Z,13.20
2022-10-13T15:20:23.986Z,13.18
2022-10-13T15:22:50.301Z,11.88
2022-10-13T15:25:16.587Z,12.30
2022-10-13T15:27:42.869Z,12.90
2022-10-13T15:30:09.890Z,13.05
2022-10-13T15:32:36.138Z,13.07
2022-10-13T15:35:02.378Z,12.68
2022-10-13T15:37:28.604Z,11.95
2022-10-13T15:39:57.563Z,13.23
2022-10-13T15:42:24.115Z,12.68
2022-10-13T15:45:08.664Z,12.40
2022-10-13T15:47:36.311Z,14.18
2022-10-13T15:50:02.688Z,11.93
2022-10-13T15:52:34.469Z,12.60
2022-10-13T15:55:01.407Z,12.88
2022-10-13T15:57:27.887Z,13.85
2022-10-13T15:59:54.117Z,13.60
2022-10-13T16:02:20.497Z,12.88
2022-10-13T16:04:47.012Z,13.60
2022-10-13T16:07:13.504Z,13.57
2022-10-13T16:09:39.727Z,14.40
2022-10-13T16:12:06.088Z,14.27
2022-10-13T16:14:32.342Z,15.23
2022-10-13T16:17:01.492Z,14.05
2022-10-13T16:19:27.906Z,13.65
2022-10-13T16:21:54.129Z,12.95
2022-10-13T16:24:20.494Z,13.95
2022-10-13T16:26:46.738Z,14.52
2022-10-13T16:29:13.068Z,14.85
2022-10-13T16:31:39.306Z,13.73
2022-10-13T16:34:05.604Z,14.15
2022-10-13T16:36:32.876Z,15.68
2022-10-13T16:38:59.145Z,15.65
2022-10-13T16:41:25.736Z,16.35
2022-10-13T16:43:52.046Z,16.23
2022-10-13T16:46:19.098Z,16.13
2022-10-13T16:48:45.709Z,15.48
2022-10-13T16:51:13.430Z,16.90
2022-10-13T16:53:39.889Z,16.58
2022-10-13T16:56:07.012Z,16.13
2022-10-13T16:58:33.462Z,16.45
2022-10-13T17:01:04.576Z,16.67
2022-10-13T17:03:30.877Z,16.55
2022-10-13T17:05:57.109Z,17.33
2022-10-13T17:08:23.362Z,17.20
2022-10-13T17:10:57.327Z,17.05
2022-10-13T17:13:24.428Z,19.13
2022-10-13T17:15:51.693Z,18.20
2022-10-13T17:18:18.060Z,18.40
2022-10-13T17:20:54.670Z,19.80
2022-10-13T17:23:21.165Z,18.55
2022-10-13T17:25:47.844Z,18.80
2022-10-13T17:28:14.480Z,18.88
2022-10-13T17:30:40.754Z,19.30
2022-10-13T17:33:08.814Z,18.90
2022-10-13T17:35:35.114Z,19.83
2022-10-13T17:38:01.370Z,19.65
2022-10-13T17:40:27.637Z,19.80
2022-10-13T17:42:54.987Z,19.92
2022-10-13T17:45:21.425Z,20.60
2022-10-13T17:47:51.505Z,20.67
2022-10-13T17:50:18.296Z,19.42
2022-10-13T17:52:44.550Z,19.67
2022-10-13T17:55:10.801Z,18.65
2022-10-13T17:57:37.040Z,18.05
2022-10-13T18:00:06.843Z,17.98
2022-10-13T18:02:33.096Z,18.23
2022-10-13T18:04:59.335Z,18.58
2022-10-13T18:07:26.041Z,18.38
2022-10-13T18:09:52.877Z,17.10
2022-10-13T18:12:19.381Z,16.95
2022-10-13T18:14:45.655Z,16.92
2022-10-13T18:17:11.889Z,18.63
2022-10-13T18:19:40.456Z,17.13
2022-10-13T18:22:06.825Z,17.23
2022-10-13T18:24:33.083Z,17.45
2022-10-13T18:26:59.418Z,18.15
2022-10-13T18:29:25.716Z,17.10
2022-10-13T18:31:54.207Z,17.40
2022-10-13T18:34:20.469Z,18.17
2022-10-13T18:36:48.188Z,17.23
2022-10-13T18:39:16.496Z,16.85
2022-10-13T18:41:42.753Z,16.88
2022-10-13T18:44:09.004Z,15.80
2022-10-13T18:46:36.634Z,16.15
2022-10-13T18:49:11.065Z,15.57
2022-10-13T18:51:37.622Z,15.65
2022-10-13T18:54:04.464Z,15.07
2022-10-13T18:56:31.843Z,13.55
2022-10-13T18:58:59.796Z,13.95
2022-10-13T19:01:27.214Z,13.90
2022-10-13T19:03:53.652Z,12.85
2022-10-13T19:06:20.807Z,13.20
2022-10-13T19:08:47.029Z,13.25
2022-10-13T19:11:14.539Z,12.05
2022-10-13T19:13:40.973Z,11.45
2022-10-13T19:16:07.553Z,11.70
2022-10-13T19:18:34.074Z,11.93
2022-10-13T19:21:00.284Z,11.52
2022-10-13T19:23:26.788Z,10.60
2022-10-13T19:25:53.321Z,10.98
2022-10-13T19:28:20.206Z,12.00
2022-10-13T19:30:46.948Z,10.80
2022-10-13T19:33:13.885Z,11.25
2022-10-13T19:35:51.434Z,10.48
2022-10-13T19:38:18.348Z,10.10
2022-10-13T19:40:49.359Z,9.70
2022-10-13T19:43:16.938Z,8.88
2022-10-13T19:45:44.385Z,8.85
2022-10-13T19:48:10.662Z,8.82
2022-10-13T19:50:36.917Z,8.52
2022-10-13T19:53:03.389Z,8.10
2022-10-13T19:55:30.495Z,8.98
2022-10-13T19:57:56.735Z,8.45
2022-10-13T20:00:23.091Z,9.18
2022-10-13T20:02:49.386Z,8.95
2022-10-13T20:05:15.692Z,8.98
2022-10-13T20:07:41.939Z,8.98
2022-10-13T20:10:08.230Z,8.75
2022-10-13T20:12:34.514Z,8.95
2022-10-13T20:15:00.743Z,8.88
2022-10-13T20:17:27.002Z,9.20
2022-10-13T20:19:53.247Z,8.60
2022-10-13T20:22:19.929Z,9.00
2022-10-13T20:24:46.230Z,8.68
2022-10-13T20:27:12.464Z,9.25
2022-10-13T20:29:38.698Z,9.50
2022-10-13T20:32:05.053Z,11.55
2022-10-13T20:34:31.388Z,12.43
2022-10-13T20:36:57.625Z,12.50
2022-10-13T20:39:23.992Z,13.68
2022-10-13T20:41:50.222Z,15.20
2022-10-13T20:44:16.482Z,16.17
2022-10-13T20:46:42.709Z,17.50
2022-10-13T20:49:11.887Z,18.55
2022-10-13T20:51:39.373Z,17.73
2022-10-13T20:54:06.058Z,18.05
2022-10-13T20:56:32.293Z,18.83
2022-10-13T20:59:02.321Z,19.95
2022-10-13T21:01:28.566Z,20.35
2022-10-13T21:03:55.001Z,20.33
2022-10-13T21:06:22.130Z,20.10
2022-10-13T21:08:48.896Z,19.80
2022-10-13T21:11:16.052Z,20.27
2022-10-13T21:13:43.340Z,20.52
2022-10-13T21:16:14.359Z,20.95
2022-10-13T21:18:43.267Z,20.05
2022-10-13T21:21:10.496Z,20.48
2022-10-13T21:23:37.422Z,20.98
2022-10-13T21:26:04.706Z,20.83
2022-10-13T21:28:31.909Z,21.08
2022-10-13T21:31:02.582Z,20.17
2022-10-13T21:33:28.921Z,20.77
2022-10-13T21:35:55.265Z,20.50
2022-10-13T21:38:21.553Z,23.05
2022-10-13T21:40:52.974Z,22.45
2022-10-13T21:43:24.193Z,23.08
2022-10-13T21:45:50.465Z,21.13
2022-10-13T21:48:16.781Z,21.42
2022-10-13T21:50:43.005Z,21.67
2022-10-13T21:53:09.411Z,22.58
2022-10-13T21:55:35.661Z,22.50
2022-10-13T21:58:05.200Z,23.27
2022-10-13T22:00:31.902Z,21.73
2022-10-13T22:02:58.181Z,23.13
2022-10-13T22:05:24.698Z,23.15
2022-10-13T22:07:51.013Z,23.08
2022-10-13T22:10:17.240Z,21.02
2022-10-13T22:12:43.574Z,21.90
2022-10-13T22:15:09.988Z,22.00
2022-10-13T22:17:36.231Z,22.50
2022-10-13T22:20:02.462Z,22.08
2022-10-13T22:22:30.981Z,21.95
2022-10-13T22:24:57.444Z,21.98
2022-10-13T22:27:23.891Z,20.92
2022-10-13T22:29:50.220Z,22.70
2022-10-13T22:32:16.436Z,19.88
2022-10-13T22:34:42.673Z,19.85
2022-10-13T22:37:08.902Z,20.55
2022-10-13T22:39:35.173Z,19.90
2022-10-13T22:42:01.398Z,20.73
2022-10-13T22:44:27.634Z,21.08
2022-10-13T22:46:53.877Z,22.55
2022-10-13T22:49:20.106Z,20.83
2022-10-13T22:51:46.327Z,20.05
2022-10-13T22:54:12.559Z,21.70
2022-10-13T22:56:40.221Z,23.33
2022-10-13T22:59:07.445Z,20.60
2022-10-13T23:01:34.054Z,20.10
2022-10-13T23:04:00.479Z,20.13
2022-10-13T23:06:28.666Z,21.02
2022-10-13T23:08:55.613Z,20.77
2022-10-13T23:11:22.211Z,19.95
2022-10-13T23:13:48.460Z,19.33
2022-10-13T23:16:19.299Z,18.80
2022-10-13T23:21:12.969Z,17.70
2022-10-13T23:23:39.203Z,16.70
2022-10-13T23:26:06.237Z,16.75
2022-10-13T23:28:32.959Z,17.23
2022-10-13T23:31:01.310Z,17.40
2022-10-13T23:33:28.097Z,16.17
2022-10-13T23:35:55.678Z,15.30
2022-10-13T23:38:22.125Z,15.40
2022-10-13T23:40:48.445Z,13.10
2022-10-13T23:43:14.695Z,13.85
2022-10-13T23:45:41.521Z,16.88
2022-10-13T23:48:07.801Z,14.45
2022-10-13T23:50:34.054Z,16.30
2022-10-13T23:53:00.898Z,15.48
2022-10-13T23:55:27.194Z,13.25
2022-10-13T23:57:53.584Z,12.73
